createdAt,value
2023-05-18T00:01:16.433Z,92503.03
2023-05-18T00:02:50.821Z,92504.16
2023-05-18T00:04:24.733Z,92498.31
2023-05-18T00:06:05.032Z,92502.25
2023-05-18T00:07:37.621Z,92503.50
2023-05-18T00:09:09.699Z,92499.56
2023-05-18T00:10:41.497Z,92500.47
2023-05-18T00:12:13.077Z,92501.22
2023-05-18T00:13:47.518Z,92496.97
2023-05-18T00:15:19.077Z,92500.47
2023-05-18T00:16:51.086Z,92499.78
2023-05-18T00:18:24.087Z,92499.13
2023-05-18T00:19:58.681Z,92498.78
2023-05-18T00:21:30.870Z,92500.38
2023-05-18T00:23:02.755Z,92496.41
2023-05-18T00:24:36.886Z,92502.28
2023-05-18T00:26:08.759Z,92499.44
2023-05-18T00:27:40.896Z,92497.53
2023-05-18T00:29:12.477Z,92500.69
2023-05-18T00:30:44.113Z,92505.31
2023-05-18T00:32:15.716Z,92498.66
2023-05-18T00:33:47.314Z,92499.69
2023-05-18T00:35:18.903Z,92493.69
2023-05-18T00:36:50.780Z,92497.38
2023-05-18T00:38:22.503Z,92498.09
2023-05-18T00:39:54.533Z,92497.16
2023-05-18T00:41:26.646Z,92501.44
2023-05-18T00:42:58.337Z,92500.66
2023-05-18T00:44:29.913Z,92500.97
2023-05-18T00:46:01.897Z,92500.53
2023-05-18T00:47:33.492Z,92495.25
2023-05-18T00:49:05.059Z,92498.75
2023-05-18T00:50:36.868Z,92493.00
2023-05-18T00:52:08.478Z,92491.88
2023-05-18T00:53:42.071Z,92488.84
2023-05-18T00:55:15.143Z,92488.41
2023-05-18T00:56:48.680Z,92486.50
2023-05-18T00:58:20.574Z,92484.13
2023-05-18T00:59:52.306Z,92494.13
2023-05-18T01:01:30.708Z,92491.75
2023-05-18T01:03:02.439Z,92490.63
2023-05-18T01:04:34.397Z,92488.41
2023-05-18T01:06:06.385Z,92491.22
2023-05-18T01:07:42.768Z,92486.50
2023-05-18T01:09:14.498Z,92491.75
2023-05-18T01:10:46.231Z,92487.81
2023-05-18T01:12:20.611Z,92490.50
2023-05-18T01:13:58.399Z,92487.03
2023-05-18T01:15:33.019Z,92487.81
2023-05-18T01:17:07.437Z,92496.38
2023-05-18T01:18:43.704Z,92490.19
2023-05-18T01:20:20.147Z,92495.25
2023-05-18T01:22:01.080Z,92492.22
2023-05-18T01:23:55.003Z,92486.03
2023-05-18T01:25:32.639Z,92482.53
2023-05-18T01:27:05.129Z,92487.47
2023-05-18T01:28:36.926Z,92485.56
2023-05-18T01:30:08.662Z,92489.38
2023-05-18T01:31:40.510Z,92487.81
2023-05-18T01:33:12.365Z,92493.53
2023-05-18T01:34:44.044Z,92489.72
2023-05-18T01:36:15.713Z,92492.41
2023-05-18T01:37:47.287Z,92488.94
2023-05-18T01:39:19.217Z,92489.94
2023-05-18T01:40:53.676Z,92489.94
2023-05-18T01:42:26.926Z,92486.47
2023-05-18T01:44:03.216Z,92491.88
2023-05-18T01:45:34.785Z,92492.50
2023-05-18T01:47:06.563Z,92495.19
2023-05-18T01:48:38.410Z,92497.44
2023-05-18T01:50:14.244Z,92488.09
2023-05-18T01:51:47.022Z,92495.75
2023-05-18T01:53:20.725Z,92488.88
2023-05-18T01:54:55.015Z,92495.56
2023-05-18T01:56:27.252Z,92502.66
2023-05-18T01:57:58.891Z,92496.31
2023-05-18T01:59:30.648Z,92501.94
2023-05-18T02:01:02.621Z,92510.81
2023-05-18T02:02:34.535Z,92509.25
2023-05-18T02:04:09.963Z,92506.72
2023-05-18T02:05:41.573Z,92502.44
2023-05-18T02:07:13.592Z,92510.44
2023-05-18T02:08:45.381Z,92507.28
2023-05-18T02:10:17.103Z,92501.19
2023-05-18T02:11:48.924Z,92503.91
2023-05-18T02:13:20.640Z,92505.69
2023-05-18T02:14:52.323Z,92506.69
2023-05-18T02:16:24.100Z,92500.81
2023-05-18T02:17:58.569Z,92500.16
2023-05-18T02:19:33.421Z,92501.75
2023-05-18T02:21:05.297Z,92510.31
2023-05-18T02:22:37.321Z,92508.50
2023-05-18T02:24:09.022Z,92503.25
2023-05-18T02:25:41.142Z,92507.53
2023-05-18T02:27:15.329Z,92506.09
2023-05-18T02:28:47.015Z,92511.16
2023-05-18T02:30:18.594Z,92509.03
2023-05-18T02:31:50.203Z,92514.22
2023-05-18T02:33:26.593Z,92516.59
2023-05-18T02:35:02.436Z,92515.47
2023-05-18T02:36:40.473Z,92516.25
2023-05-18T02:38:12.266Z,92517.50
2023-05-18T02:39:43.966Z,92511.44
2023-05-18T02:41:15.721Z,92507.63
2023-05-18T02:42:47.403Z,92520.19
2023-05-18T02:44:19.215Z,92520.88
2023-05-18T02:45:51.608Z,92509.63
2023-05-18T02:47:23.434Z,92513.09
2023-05-18T02:48:55.089Z,92515.91
2023-05-18T02:50:26.787Z,92517.50
2023-05-18T02:51:58.423Z,92515.91
2023-05-18T02:53:30.110Z,92519.41
2023-05-18T02:55:01.824Z,92508.28
2023-05-18T02:56:33.694Z,92504.47
2023-05-18T02:58:05.370Z,92516.84
2023-05-18T02:59:37.778Z,92514.59
2023-05-18T03:01:09.602Z,92523.81
2023-05-18T03:02:41.460Z,92522.22
2023-05-18T03:04:14.122Z,92518.88
2023-05-18T03:05:45.955Z,92533.97
2023-05-18T03:07:17.814Z,92533.16
2023-05-18T03:08:54.456Z,92535.41
2023-05-18T03:10:26.358Z,92540.66
2023-05-18T03:11:58.272Z,92544.47
2023-05-18T03:13:30.644Z,92544.47
2023-05-18T03:15:02.821Z,92539.09
2023-05-18T03:16:34.539Z,92546.84
2023-05-18T03:18:06.866Z,92554.28
2023-05-18T03:19:39.224Z,92544.28
2023-05-18T03:21:13.882Z,92553.97
2023-05-18T03:22:45.537Z,92557.47
2023-05-18T03:24:17.276Z,92548.56
2023-05-18T03:25:54.126Z,92550.59
2023-05-18T03:27:26.931Z,92554.06
2023-05-18T03:28:58.731Z,92558.69
2023-05-18T03:30:32.143Z,92560.94
2023-05-18T03:32:03.955Z,92558.56
2023-05-18T03:33:36.347Z,92561.28
2023-05-18T03:35:08.199Z,92556.34
2023-05-18T03:36:40.825Z,92556.78
2023-05-18T03:38:12.848Z,92555.31
2023-05-18T03:39:45.141Z,92562.78
2023-05-18T03:41:16.742Z,92566.72
2023-05-18T03:42:48.733Z,92564.34
2023-05-18T03:44:21.017Z,92572.00
2023-05-18T03:45:53.311Z,92571.53
2023-05-18T03:47:25.069Z,92578.97
2023-05-18T03:48:57.076Z,92572.13
2023-05-18T03:50:29.659Z,92577.19
2023-05-18T03:52:03.977Z,92575.94
2023-05-18T03:53:36.417Z,92580.22
2023-05-18T03:55:08.850Z,92581.19
2023-05-18T03:56:41.200Z,92576.59
2023-05-18T03:58:12.851Z,92582.78
2023-05-18T03:59:44.782Z,92579.28
2023-05-18T04:01:19.073Z,92579.63
2023-05-18T04:02:52.403Z,92583.44
2023-05-18T04:04:27.779Z,92582.78
2023-05-18T04:05:59.712Z,92586.75
2023-05-18T04:07:31.327Z,92589.09
2023-05-18T04:09:02.982Z,92588.78
2023-05-18T04:10:34.606Z,92585.28
2023-05-18T04:12:06.703Z,92586.41
2023-05-18T04:13:38.344Z,92590.81
2023-05-18T04:15:10.522Z,92588.88
2023-05-18T04:16:43.292Z,92593.16
2023-05-18T04:18:16.211Z,92588.72
2023-05-18T04:19:48.170Z,92589.19
2023-05-18T04:21:20.451Z,92588.19
2023-05-18T04:22:52.568Z,92592.13
2023-05-18T04:24:25.065Z,92592.25
2023-05-18T04:25:57.423Z,92597.31
2023-05-18T04:27:29.786Z,92581.56
2023-05-18T04:29:01.367Z,92588.88
2023-05-18T04:30:33.058Z,92597.78
2023-05-18T04:32:08.209Z,92591.56
2023-05-18T04:33:40.572Z,92600.47
2023-05-18T04:35:12.298Z,92599.91
2023-05-18T04:36:44.786Z,92595.28
2023-05-18T04:38:16.924Z,92594.97
2023-05-18T04:39:48.529Z,92596.19
2023-05-18T04:41:22.764Z,92594.75
2023-05-18T04:42:54.452Z,92593.50
2023-05-18T04:44:27.603Z,92598.09
2023-05-18T04:45:59.215Z,92594.28
2023-05-18T04:47:31.306Z,92610.81
2023-05-18T04:49:03.790Z,92606.19
2023-05-18T04:50:37.348Z,92607.78
2023-05-18T04:52:10.497Z,92608.56
2023-05-18T04:53:42.160Z,92609.03
2023-05-18T04:55:14.261Z,92612.66
2023-05-18T04:56:47.520Z,92611.66
2023-05-18T04:58:19.131Z,92615.28
2023-05-18T04:59:50.853Z,92621.47
2023-05-18T05:01:22.624Z,92618.75
2023-05-18T05:02:54.508Z,92618.31
2023-05-18T05:04:26.509Z,92617.72
2023-05-18T05:05:58.034Z,92614.69
2023-05-18T05:07:29.661Z,92622.13
2023-05-18T05:09:01.298Z,92621.47
2023-05-18T05:10:33.171Z,92620.22
2023-05-18T05:12:05.414Z,92622.91
2023-05-18T05:13:37.092Z,92628.19
2023-05-18T05:15:09.618Z,92618.72
2023-05-18T05:16:41.507Z,92616.03
2023-05-18T05:18:13.262Z,92614.56
2023-05-18T05:19:44.973Z,92622.78
2023-05-18T05:21:16.820Z,92628.63
2023-05-18T05:22:48.386Z,92624.81
2023-05-18T05:24:20.201Z,92626.41
2023-05-18T05:25:51.856Z,92625.75
2023-05-18T05:27:26.224Z,92626.31
2023-05-18T05:28:58.204Z,92631.84
2023-05-18T05:30:30.587Z,92621.03
2023-05-18T05:32:02.515Z,92631.19
2023-05-18T05:33:34.173Z,92638.19
2023-05-18T05:35:06.539Z,92642.47
2023-05-18T05:36:38.542Z,92641.34
2023-05-18T05:38:10.583Z,92635.94
2023-05-18T05:39:42.373Z,92644.47
2023-05-18T05:41:14.251Z,92637.50
2023-05-18T05:42:45.983Z,92645.41
2023-05-18T05:44:18.150Z,92637.28
2023-05-18T05:45:50.066Z,92637.63
2023-05-18T05:47:22.043Z,92633.34
2023-05-18T05:48:54.238Z,92644.59
2023-05-18T05:50:26.392Z,92649.22
2023-05-18T05:51:58.056Z,92645.41
2023-05-18T05:53:30.147Z,92643.16
2023-05-18T05:55:01.804Z,92645.19
2023-05-18T05:56:33.571Z,92635.75
2023-05-18T05:58:05.609Z,92647.34
2023-05-18T05:59:37.204Z,92641.94
2023-05-18T06:01:09.001Z,92649.47
2023-05-18T06:02:40.952Z,92647.25
2023-05-18T06:04:12.907Z,92649.28
2023-05-18T06:05:44.494Z,92652.44
2023-05-18T06:07:16.084Z,92645.22
2023-05-18T06:08:47.601Z,92651.88
2023-05-18T06:10:21.406Z,92651.75
2023-05-18T06:11:53.412Z,92649.41
2023-05-18T06:13:25.019Z,92641.84
2023-05-18T06:14:59.900Z,92642.88
2023-05-18T06:16:31.626Z,92652.47
2023-05-18T06:18:03.702Z,92653.81
2023-05-18T06:19:35.308Z,92651.38
2023-05-18T06:21:06.875Z,92653.75
2023-05-18T06:22:38.498Z,92661.97
2023-05-18T06:24:10.479Z,92663.22
2023-05-18T06:25:42.346Z,92658.28
2023-05-18T06:27:13.936Z,92661.78
2023-05-18T06:28:45.459Z,92657.56
2023-05-18T06:30:17.225Z,92650.72
2023-05-18T06:31:48.979Z,92654.78
2023-05-18T06:33:21.711Z,92652.97
2023-05-18T06:34:53.318Z,92662.06
2023-05-18T06:36:25.027Z,92656.00
2023-05-18T06:37:56.740Z,92659.94
2023-05-18T06:39:28.645Z,92661.28
2023-05-18T06:41:00.271Z,92664.56
2023-05-18T06:42:32.954Z,92670.97
2023-05-18T06:44:04.659Z,92665.78
2023-05-18T06:45:37.521Z,92669.81
2023-05-18T06:47:10.005Z,92672.31
2023-05-18T06:48:44.775Z,92673.88
2023-05-18T06:50:16.533Z,92667.75
2023-05-18T06:51:48.175Z,92671.25
2023-05-18T06:53:19.875Z,92677.81
2023-05-18T06:54:51.891Z,92669.25
2023-05-18T06:56:23.858Z,92680.19
2023-05-18T06:57:58.387Z,92674.53
2023-05-18T06:59:29.929Z,92680.03
2023-05-18T07:01:03.037Z,92666.88
2023-05-18T07:02:34.901Z,92676.13
2023-05-18T07:04:06.851Z,92668.78
2023-05-18T07:05:39.481Z,92669.56
2023-05-18T07:07:11.750Z,92673.97
2023-05-18T07:08:44.081Z,92676.69
2023-05-18T07:10:15.628Z,92674.75
2023-05-18T07:11:47.318Z,92681.41
2023-05-18T07:13:19.589Z,92676.13
2023-05-18T07:14:51.465Z,92679.16
2023-05-18T07:16:23.245Z,92686.06
2023-05-18T07:17:55.219Z,92685.16
2023-05-18T07:19:27.393Z,92691.94
2023-05-18T07:20:59.694Z,92690.34
2023-05-18T07:22:31.324Z,92689.81
2023-05-18T07:24:03.368Z,92695.66
2023-05-18T07:25:34.990Z,92692.94
2023-05-18T07:27:07.068Z,92695.13
2023-05-18T07:28:38.785Z,92696.03
2023-05-18T07:30:11.186Z,92699.16
2023-05-18T07:31:42.910Z,92692.41
2023-05-18T07:33:15.191Z,92697.50
2023-05-18T07:34:49.862Z,92689.50
2023-05-18T07:36:22.288Z,92690.38
2023-05-18T07:37:54.278Z,92699.06
2023-05-18T07:39:29.923Z,92705.94
2023-05-18T07:41:01.687Z,92696.25
2023-05-18T07:42:34.178Z,92706.75
2023-05-18T07:44:05.809Z,92702.13
2023-05-18T07:45:37.742Z,92704.03
2023-05-18T07:47:09.967Z,92712.81
2023-05-18T07:48:41.579Z,92707.41
2023-05-18T07:50:13.430Z,92712.94
2023-05-18T07:51:45.460Z,92716.09
2023-05-18T07:53:17.614Z,92712.59
2023-05-18T07:54:49.266Z,92720.38
2023-05-18T07:56:20.992Z,92721.97
2023-05-18T07:57:53.365Z,92720.59
2023-05-18T07:59:24.952Z,92725.13
2023-05-18T08:00:56.786Z,92729.19
2023-05-18T08:02:31.345Z,92731.53
2023-05-18T08:04:05.257Z,92733.00
2023-05-18T08:05:36.956Z,92731.88
2023-05-18T08:07:09.346Z,92734.72
2023-05-18T08:08:41.108Z,92738.22
2023-05-18T08:10:13.308Z,92733.25
2023-05-18T08:11:45.657Z,92727.06
2023-05-18T08:13:17.595Z,92740.91
2023-05-18T08:14:49.164Z,92740.69
2023-05-18T08:16:21.084Z,92735.38
2023-05-18T08:17:52.908Z,92737.53
2023-05-18T08:19:25.263Z,92739.34
2023-05-18T08:20:56.998Z,92737.53
2023-05-18T08:22:28.664Z,92739.56
2023-05-18T08:24:00.367Z,92740.25
2023-05-18T08:25:32.380Z,92746.78
2023-05-18T08:27:05.051Z,92742.84
2023-05-18T08:28:37.318Z,92745.19
2023-05-18T08:30:10.422Z,92750.28
2023-05-18T08:31:42.465Z,92751.84
2023-05-18T08:33:14.665Z,92749.94
2023-05-18T08:34:47.013Z,92751.06
2023-05-18T08:36:19.460Z,92751.53
2023-05-18T08:37:51.167Z,92748.34
2023-05-18T08:39:23.268Z,92751.63
2023-05-18T08:41:01.135Z,92751.97
2023-05-18T08:42:48.653Z,92755.81
2023-05-18T08:44:21.662Z,92756.47
2023-05-18T08:45:55.334Z,92757.25
2023-05-18T08:47:27.100Z,92761.88
2023-05-18T08:48:58.784Z,92760.31
2023-05-18T08:50:31.581Z,92771.13
2023-05-18T08:52:04.044Z,92766.88
2023-05-18T08:53:36.249Z,92773.50
2023-05-18T08:55:11.853Z,92770.78
2023-05-18T08:56:43.909Z,92790.78
2023-05-18T08:58:18.228Z,92790.19
2023-05-18T08:59:49.846Z,92792.78
2023-05-18T09:01:23.696Z,92794.69
2023-05-18T09:02:55.498Z,92792.78
2023-05-18T09:04:27.551Z,92788.03
2023-05-18T09:05:59.566Z,92788.38
2023-05-18T09:07:31.355Z,92790.94
2023-05-18T09:09:07.102Z,92793.88
2023-05-18T09:10:39.036Z,92796.59
2023-05-18T09:12:11.186Z,92797.81
2023-05-18T09:13:42.847Z,92797.03
2023-05-18T09:15:16.229Z,92794.34
2023-05-18T09:16:47.761Z,92798.16
2023-05-18T09:18:22.011Z,92794.78
2023-05-18T09:19:55.431Z,92798.59
2023-05-18T09:21:27.159Z,92802.00
2023-05-18T09:22:59.585Z,92807.19
2023-05-18T09:24:31.358Z,92808.31
2023-05-18T09:26:04.904Z,92802.78
2023-05-18T09:27:37.595Z,92810.13
2023-05-18T09:29:19.353Z,92808.53
2023-05-18T09:30:53.476Z,92815.06
2023-05-18T09:32:25.437Z,92809.97
2023-05-18T09:33:57.225Z,92811.00
2023-05-18T09:35:29.274Z,92813.38
2023-05-18T09:37:01.098Z,92812.72
2023-05-18T09:38:37.133Z,92811.00
2023-05-18T09:40:09.475Z,92817.09
2023-05-18T09:41:41.776Z,92806.06
2023-05-18T09:43:13.537Z,92809.22
2023-05-18T09:44:46.434Z,92809.22
2023-05-18T09:46:18.569Z,92804.63
2023-05-18T09:47:50.940Z,92800.03
2023-05-18T09:49:23.530Z,92805.00
2023-05-18T09:50:55.116Z,92809.63
2023-05-18T09:52:26.852Z,92800.72
2023-05-18T09:53:58.975Z,92802.72
2023-05-18T09:55:31.694Z,92807.34
2023-05-18T09:57:10.891Z,92805.00
2023-05-18T09:58:43.184Z,92805.25
2023-05-18T10:00:15.712Z,92805.09
2023-05-18T10:02:09.303Z,92807.13
2023-05-18T10:03:41.514Z,92807.09
2023-05-18T10:05:20.387Z,92802.03
2023-05-18T10:06:52.422Z,92807.09
2023-05-18T10:08:24.421Z,92813.59
2023-05-18T10:10:01.609Z,92805.28
2023-05-18T10:11:34.161Z,92823.06
2023-05-18T10:13:06.342Z,92816.56
2023-05-18T10:14:38.556Z,92818.94
2023-05-18T10:16:10.783Z,92823.47
2023-05-18T10:17:43.708Z,92821.09
2023-05-18T10:19:15.587Z,92823.59
2023-05-18T10:20:47.953Z,92824.47
2023-05-18T10:22:20.603Z,92826.84
2023-05-18T10:23:52.769Z,92822.22
2023-05-18T10:25:25.812Z,92824.38
2023-05-18T10:26:57.759Z,92830.16
2023-05-18T10:28:40.841Z,92829.81
2023-05-18T10:30:13.279Z,92833.66
2023-05-18T10:31:45.793Z,92834.25
2023-05-18T10:33:27.906Z,92842.75
2023-05-18T10:35:00.514Z,92841.16
2023-05-18T10:36:33.026Z,92842.50
2023-05-18T10:38:04.850Z,92843.91
2023-05-18T10:39:37.472Z,92839.59
2023-05-18T10:41:09.856Z,92840.53
2023-05-18T10:42:42.093Z,92839.97
2023-05-18T10:44:13.749Z,92839.53
2023-05-18T10:45:49.159Z,92841.81
2023-05-18T10:47:21.029Z,92839.44
2023-05-18T10:48:52.863Z,92846.78
2023-05-18T10:50:24.672Z,92846.00
2023-05-18T10:51:56.454Z,92839.16
2023-05-18T10:53:29.682Z,92848.56
2023-05-18T10:55:01.699Z,92849.22
2023-05-18T10:56:36.023Z,92842.91
2023-05-18T10:58:10.665Z,92856.38
2023-05-18T10:59:47.430Z,92859.88
2023-05-18T11:01:19.950Z,92858.41
2023-05-18T11:02:51.662Z,92866.00
2023-05-18T11:04:24.631Z,92870.03
2023-05-18T11:06:12.355Z,92866.66
2023-05-18T11:07:45.232Z,92868.09
2023-05-18T11:09:23.092Z,92866.88
2023-05-18T11:11:04.897Z,92864.41
2023-05-18T11:12:38.372Z,92865.88
2023-05-18T11:14:09.974Z,92866.53
2023-05-18T11:16:07.990Z,92864.28
2023-05-18T11:17:40.292Z,92863.72
2023-05-18T11:19:12.686Z,92866.19
2023-05-18T11:20:47.096Z,92868.91
2023-05-18T11:22:19.095Z,92881.78
2023-05-18T11:24:26.581Z,92870.50
2023-05-18T11:26:03.702Z,92863.06
2023-05-18T11:27:35.323Z,92878.69
2023-05-18T11:29:19.235Z,92886.34
2023-05-18T11:30:51.784Z,92871.16
2023-05-18T11:32:29.999Z,92874.72
2023-05-18T11:34:05.692Z,92885.16
2023-05-18T11:35:56.412Z,92881.56
2023-05-18T11:37:40.195Z,92882.03
2023-05-18T11:39:13.767Z,92883.34
2023-05-18T11:40:48.566Z,92888.63
2023-05-18T11:42:20.698Z,92879.72
2023-05-18T11:44:10.902Z,92880.72
2023-05-18T11:45:52.291Z,92876.34
2023-05-18T11:47:24.720Z,92875.28
2023-05-18T11:48:56.893Z,92872.00
2023-05-18T11:50:29.950Z,92877.63
2023-05-18T11:52:02.173Z,92878.78
2023-05-18T11:53:34.380Z,92881.81
2023-05-18T11:55:07.242Z,92892.81
2023-05-18T11:56:41.034Z,92903.78
2023-05-18T11:58:19.631Z,92911.56
2023-05-18T11:59:54.940Z,92911.72
2023-05-18T12:01:26.970Z,92908.03
2023-05-18T12:02:58.997Z,92909.31
2023-05-18T12:04:32.436Z,92908.66
2023-05-18T12:06:04.566Z,92907.53
2023-05-18T12:07:37.112Z,92913.53
2023-05-18T12:09:08.791Z,92914.47
2023-05-18T12:10:41.625Z,92910.34
2023-05-18T12:12:13.781Z,92925.56
2023-05-18T12:13:45.820Z,92918.72
2023-05-18T12:15:21.654Z,92924.13
2023-05-18T12:16:53.794Z,92923.00
2023-05-18T12:18:46.065Z,92925.50
2023-05-18T12:20:18.716Z,92922.16
2023-05-18T12:21:50.695Z,92917.22
2023-05-18T12:23:22.850Z,92919.31
2023-05-18T12:24:55.198Z,92918.56
2023-05-18T12:26:28.825Z,92905.59
2023-05-18T12:28:01.708Z,92908.34
2023-05-18T12:29:33.883Z,92908.34
2023-05-18T12:31:08.564Z,92908.19
2023-05-18T12:32:44.112Z,92907.41
2023-05-18T12:34:16.243Z,92909.44
2023-05-18T12:35:47.977Z,92904.16
2023-05-18T12:37:23.937Z,92897.19
2023-05-18T12:39:01.936Z,92905.28
2023-05-18T12:40:45.053Z,92901.78
2023-05-18T12:42:17.015Z,92899.63
2023-05-18T12:43:48.740Z,92902.63
2023-05-18T12:45:22.884Z,92893.25
2023-05-18T12:46:55.308Z,92889.50
2023-05-18T12:48:27.521Z,92898.25
2023-05-18T12:50:01.863Z,92905.25
2023-05-18T12:51:35.291Z,92900.16
2023-05-18T12:53:07.027Z,92898.91
2023-05-18T12:54:50.370Z,92905.75
2023-05-18T12:56:25.499Z,92897.97
2023-05-18T12:58:04.192Z,92900.50
2023-05-18T12:59:36.373Z,92913.66
2023-05-18T13:01:11.827Z,92913.00
2023-05-18T13:02:43.846Z,92909.19
2023-05-18T13:04:15.762Z,92921.13
2023-05-18T13:06:03.323Z,92911.91
2023-05-18T13:07:38.267Z,92926.66
2023-05-18T13:09:12.930Z,92936.03
2023-05-18T13:10:45.217Z,92932.97
2023-05-18T13:12:17.208Z,92938.22
2023-05-18T13:14:07.822Z,92943.78
2023-05-18T13:15:40.289Z,92944.19
2023-05-18T13:17:21.556Z,92946.84
2023-05-18T13:18:57.700Z,92952.03
2023-05-18T13:20:36.978Z,92952.44
2023-05-18T13:22:09.683Z,92957.47
2023-05-18T13:23:41.699Z,92954.22
2023-05-18T13:25:13.694Z,92959.78
2023-05-18T13:26:46.159Z,92961.16
2023-05-18T13:28:18.822Z,92956.38
2023-05-18T13:29:51.372Z,92957.63
2023-05-18T13:31:23.135Z,92964.63
2023-05-18T13:32:55.532Z,92964.34
2023-05-18T13:34:27.229Z,92967.25
2023-05-18T13:35:59.520Z,92967.91
2023-05-18T13:37:31.416Z,92968.88
2023-05-18T13:39:07.663Z,92964.78
2023-05-18T13:40:39.430Z,92965.97
2023-05-18T13:42:10.954Z,92969.94
2023-05-18T13:43:43.074Z,92972.22
2023-05-18T13:45:16.322Z,92977.47
2023-05-18T13:46:48.594Z,92971.91
2023-05-18T13:48:20.654Z,92975.78
2023-05-18T13:49:52.697Z,92975.81
2023-05-18T13:51:24.365Z,92982.50
2023-05-18T13:52:56.614Z,92985.16
2023-05-18T13:54:28.295Z,92973.50
2023-05-18T13:56:00.373Z,92965.22
2023-05-18T13:57:32.654Z,92965.06
2023-05-18T13:59:04.766Z,92967.81
2023-05-18T14:00:37.557Z,92969.09
2023-05-18T14:02:09.623Z,92974.84
2023-05-18T14:03:44.058Z,92971.81
2023-05-18T14:05:16.819Z,92975.63
2023-05-18T14:06:48.977Z,92968.94
2023-05-18T14:08:20.617Z,92975.63
2023-05-18T14:09:52.456Z,92973.97
2023-05-18T14:11:24.136Z,92976.31
2023-05-18T14:12:55.847Z,92972.09
2023-05-18T14:14:27.458Z,92972.38
2023-05-18T14:15:59.827Z,92969.28
2023-05-18T14:17:31.619Z,92971.16
2023-05-18T14:19:03.935Z,92977.81
2023-05-18T14:20:38.088Z,92978.72
2023-05-18T14:22:09.869Z,92969.81
2023-05-18T14:23:41.582Z,92972.38
2023-05-18T14:25:13.272Z,92973.47
2023-05-18T14:26:44.824Z,92970.47
2023-05-18T14:28:17.774Z,92971.56
2023-05-18T14:29:49.625Z,92967.59
2023-05-18T14:31:21.917Z,92976.81
2023-05-18T14:32:53.597Z,92967.75
2023-05-18T14:34:25.555Z,92977.69
2023-05-18T14:35:58.450Z,92969.88
2023-05-18T14:37:30.251Z,92960.84
2023-05-18T14:39:02.306Z,92969.63
2023-05-18T14:40:34.506Z,92969.63
2023-05-18T14:42:06.561Z,92970.44
2023-05-18T14:43:38.381Z,92974.38
2023-05-18T14:45:10.154Z,92971.66
2023-05-18T14:46:42.115Z,92972.44
2023-05-18T14:48:13.889Z,92980.72
2023-05-18T14:49:45.846Z,92979.13
2023-05-18T14:51:18.859Z,92978.31
2023-05-18T14:52:52.399Z,92982.78
2023-05-18T14:54:24.090Z,92980.31
2023-05-18T14:55:56.334Z,92977.13
2023-05-18T14:57:28.163Z,92980.47
2023-05-18T14:59:00.314Z,92982.91
2023-05-18T15:00:32.369Z,92985.34
2023-05-18T15:02:04.883Z,92981.38
2023-05-18T15:03:36.910Z,92978.06
2023-05-18T15:05:10.117Z,92980.03
2023-05-18T15:06:41.935Z,92982.09
2023-05-18T15:08:13.984Z,92980.03
2023-05-18T15:09:45.620Z,92983.25
2023-05-18T15:11:17.836Z,92975.81
2023-05-18T15:12:49.738Z,92971.59
2023-05-18T15:14:21.825Z,92966.97
2023-05-18T15:15:53.561Z,92969.72
2023-05-18T15:17:26.825Z,92973.06
2023-05-18T15:18:59.388Z,92973.84
2023-05-18T15:20:31.285Z,92977.19
2023-05-18T15:22:03.440Z,92974.66
2023-05-18T15:23:35.900Z,92979.13
2023-05-18T15:25:08.457Z,92971.03
2023-05-18T15:26:40.343Z,92975.63
2023-05-18T15:28:12.051Z,92971.34
2023-05-18T15:29:43.732Z,92975.16
2023-05-18T15:31:15.446Z,92975.75
2023-05-18T15:32:47.393Z,92982.59
2023-05-18T15:34:19.062Z,92980.03
2023-05-18T15:35:50.877Z,92979.69
2023-05-18T15:37:22.645Z,92984.31
2023-05-18T15:38:54.354Z,92984.31
2023-05-18T15:40:26.282Z,92980.38
2023-05-18T15:41:57.966Z,92988.00
2023-05-18T15:43:30.660Z,92984.19
2023-05-18T15:45:03.364Z,92987.19
2023-05-18T15:46:36.292Z,92991.16
2023-05-18T15:48:08.696Z,92989.78
2023-05-18T15:49:40.565Z,92986.88
2023-05-18T15:51:12.395Z,92988.78
2023-05-18T15:52:44.555Z,92994.19
2023-05-18T15:54:16.235Z,92991.97
2023-05-18T15:55:50.900Z,92993.38
2023-05-18T15:57:22.427Z,92997.69
2023-05-18T15:58:54.288Z,92989.56
2023-05-18T16:00:26.520Z,92993.88
2023-05-18T16:01:58.136Z,92999.13
2023-05-18T16:03:30.278Z,93000.72
2023-05-18T16:05:02.394Z,93002.13
2023-05-18T16:06:34.486Z,92999.59
2023-05-18T16:08:06.562Z,93001.66
2023-05-18T16:09:38.792Z,93010.34
2023-05-18T16:11:10.755Z,93001.75
2023-05-18T16:12:42.623Z,93002.84
2023-05-18T16:14:14.767Z,93001.53
2023-05-18T16:15:46.929Z,93004.06
2023-05-18T16:17:18.812Z,93008.84
2023-05-18T16:18:50.787Z,93010.88
2023-05-18T16:20:22.579Z,93009.44
2023-05-18T16:21:54.431Z,93009.91
2023-05-18T16:23:26.258Z,93008.16
2023-05-18T16:24:59.174Z,93001.69
2023-05-18T16:26:30.926Z,93010.16
2023-05-18T16:28:02.833Z,93008.56
2023-05-18T16:29:34.492Z,93016.03
2023-05-18T16:31:08.650Z,93011.06
2023-05-18T16:32:40.813Z,93015.25
2023-05-18T16:34:12.752Z,93015.88
2023-05-18T16:35:44.846Z,93015.56
2023-05-18T16:37:17.148Z,93017.16
2023-05-18T16:38:48.797Z,93017.63
2023-05-18T16:40:20.709Z,93020.44
2023-05-18T16:41:52.261Z,93019.28
2023-05-18T16:43:23.957Z,93012.41
2023-05-18T16:44:56.344Z,93017.44
2023-05-18T16:46:28.274Z,93018.38
2023-05-18T16:48:02.251Z,93017.41
2023-05-18T16:49:34.833Z,93015.97
2023-05-18T16:51:07.134Z,93024.53
2023-05-18T16:52:38.772Z,93021.81
2023-05-18T16:54:11.164Z,93032.66
2023-05-18T16:55:42.738Z,93030.41
2023-05-18T16:57:14.516Z,93035.97
2023-05-18T16:58:52.272Z,93040.06
2023-05-18T17:00:24.109Z,93038.47
2023-05-18T17:01:55.744Z,93038.81
2023-05-18T17:03:27.894Z,93044.66
2023-05-18T17:04:59.818Z,93050.69
2023-05-18T17:06:31.404Z,93041.00
2023-05-18T17:08:03.208Z,93045.94
2023-05-18T17:09:34.806Z,93051.66
2023-05-18T17:11:06.557Z,93060.09
2023-05-18T17:12:38.638Z,93053.91
2023-05-18T17:14:10.233Z,93058.53
2023-05-18T17:15:41.977Z,93060.47
2023-05-18T17:17:13.631Z,93054.56
2023-05-18T17:18:46.590Z,93054.44
2023-05-18T17:20:18.293Z,93055.22
2023-05-18T17:21:50.163Z,93056.34
2023-05-18T17:23:21.913Z,93059.34
2023-05-18T17:24:53.919Z,93059.03
2023-05-18T17:26:26.332Z,93058.25
2023-05-18T17:27:59.107Z,93060.47
2023-05-18T17:29:31.225Z,93063.38
2023-05-18T17:31:07.209Z,93063.06
2023-05-18T17:32:41.886Z,93064.97
2023-05-18T17:34:13.693Z,93065.59
2023-05-18T17:35:47.566Z,93072.78
2023-05-18T17:37:19.607Z,93066.44
2023-05-18T17:38:51.381Z,93064.38
2023-05-18T17:40:23.266Z,93065.81
2023-05-18T17:41:55.494Z,93068.72
2023-05-18T17:43:27.085Z,93071.91
2023-05-18T17:44:59.468Z,93071.13
2023-05-18T17:46:31.321Z,93067.13
2023-05-18T17:48:02.976Z,93063.19
2023-05-18T17:49:35.152Z,93067.97
2023-05-18T17:51:07.431Z,93070.84
2023-05-18T17:52:39.183Z,93065.31
2023-05-18T17:54:11.058Z,93068.31
2023-05-18T17:55:42.726Z,93081.22
2023-05-18T17:57:14.408Z,93072.97
2023-05-18T17:58:46.180Z,93076.28
2023-05-18T18:00:18.897Z,93075.81
2023-05-18T18:01:50.828Z,93075.50
2023-05-18T18:03:22.648Z,93078.34
2023-05-18T18:04:55.395Z,93075.97
2023-05-18T18:06:27.117Z,93076.28
2023-05-18T18:07:58.729Z,93079.00
2023-05-18T18:09:32.679Z,93088.53
2023-05-18T18:11:05.364Z,93089.81
2023-05-18T18:12:39.469Z,93091.75